TimeHST,TemperatureF,Dew PointF,Humidity,Sea Level PressureIn,VisibilityMPH,Wind Direction,Wind SpeedMPH,Gust SpeedMPH,PrecipitationIn,Events,Conditions,WindDirDegrees,DateUTC
12:55 AM,61.2,57.0,86,29.95,10.0,Calm,Calm,-,N/A,,Clear,0,2013-05-21 10:55:00
1:55 AM,61.9,57.9,87,29.92,10.0,Calm,Calm,-,N/A,,Clear,0,2013-05-21 11:55:00
2:55 AM,59.7,57.2,91,29.92,10.0,Calm,Calm,-,N/A,,Clear,0,2013-05-21 12:55:00
3:55 AM,59.4,57.0,92,29.92,10.0,Calm,Calm,-,N/A,,Partly Cloudy,0,2013-05-21 13:55:00
4:55 AM,58.1,55.6,91,29.93,10.0,Calm,Calm,-,N/A,,Partly Cloudy,0,2013-05-21 14:55:00
5:55 AM,58.5,55.9,91,29.95,10.0,NW,3.5,-,N/A,,Partly Cloudy,310,2013-05-21 15:55:00
6:55 AM,61.5,58.8,91,29.97,10.0,WNW,3.5,-,N/A,,Clear,300,2013-05-21 16:55:00
7:55 AM,68.7,62.4,80,29.98,10.0,Calm,Calm,-,N/A,,Clear,0,2013-05-21 17:55:00
8:55 AM,73.0,62.2,69,29.98,10.0,SSE,4.6,-,N/A,,Clear,150,2013-05-21 18:55:00
9:55 AM,73.9,61.3,65,29.99,10.0,Variable,4.6,-,N/A,,Partly Cloudy,0,2013-05-21 19:55:00
10:55 AM,77.0,62.1,60,29.98,10.0,Variable,6.9,-,N/A,,Scattered Clouds,0,2013-05-21 20:55:00
11:55 AM,78.6,59.5,52,29.97,10.0,WSW,8.1,-,N/A,,Mostly Cloudy,250,2013-05-21 21:55:00
12:55 PM,80.8,59.9,49,29.96,10.0,Variable,5.8,-,N/A,,Mostly Cloudy,0,2013-05-21 22:55:00
1:55 PM,76.8,61.0,58,29.94,10.0,Variable,3.5,-,N/A,,Overcast,0,2013-05-21 23:55:00
2:55 PM,76.5,60.8,58,29.93,10.0,NNW,9.2,-,N/A,,Overcast,330,2013-05-22 00:55:00
3:55 PM,76.6,60.8,58,29.92,10.0,ENE,5.8,-,N/A,,Overcast,70,2013-05-22 01:55:00
4:55 PM,76.8,60.8,58,29.91,10.0,SSE,4.6,-,N/A,,Partly Cloudy,150,2013-05-22 02:55:00
5:55 PM,75.6,60.6,60,29.93,10.0,Calm,Calm,-,N/A,,Mostly Cloudy,0,2013-05-22 03:55:00
6:55 PM,72.1,61.5,69,29.94,10.0,NNW,6.9,-,N/A,,Scattered Clouds,340,2013-05-22 04:55:00
7:55 PM,70.9,61.3,72,29.97,10.0,North,3.5,-,N/A,,Partly Cloudy,360,2013-05-22 05:55:00
8:55 PM,68.9,61.3,77,29.98,10.0,NNW,3.5,-,N/A,,Clear,340,2013-05-22 06:55:00
9:55 PM,66.7,61.3,83,29.99,10.0,Calm,Calm,-,N/A,,Clear,0,2013-05-22 07:55:00
10:55 PM,65.7,61.5,86,29.99,10.0,Calm,Calm,-,N/A,,Clear,0,2013-05-22 08:55:00
11:55 PM,65.5,61.2,86,29.98,10.0,Calm,Calm,-,N/A,,Clear,0,2013-05-22 09:55:00